Portada
METAR-TAF:

METAR-TAF

Aeropuertos :

Aurillac, Francia

latitud: 44-53N, longitud: 002-25E, altitud: 639 m

Observación

El informe se hizo hace 43 minutos, a las 08:30 UTC
Viento 5 kt del sur, variando entre este-sureste y suroeste
Temperatura 16°C
Humedad 45%
Presión 1017 hPa
Visibilidad 10 km o más
sin nubes por debajo de 1500 m y sin presencia de cumulonimbus.

METAR: LFLW 240830Z AUTO 17005KT 120V220 CAVOK 16/04 Q1017 NOSIG

Hora: 11:13 (09:13 UTC)

Pronóstico

El informe se hizo hace 1 hora y 13 minutos, a las 08:00 UTC
Pronóstico válido del 24 a las 09 UTC al 24 a las 18 UTC
Viento 8 kt del suroeste
Visibilidad 10 km o más
sin nubes por debajo de 1500 m y sin presencia de cumulonimbus.

TAF: LFLW 240800Z 2409/2418 22008KT CAVOK

Observaciones y pronósticos meteorológicos de más de 4000 aeropuertos (mensajes METAR y TAF).

Los puntos amarillos y rojos representan las estaciones disponibles.

Ponga el ratón en el punto deseado para ver el nombre de la estación.

Haga clic para ver las observaciones y los pronósticos meteorológicos.

Para cambiar el mapa : haga clic en los botones verdes con una cruz de color negro para hacer un zoom, en el botón verde con un guión para alejar o en las flechas verdes para mapas adyacentes.


METAR-TAF: